createdAt,value
2019-03-29T00:00:35.459Z,0.00
2019-03-29T00:01:35.443Z,0.00
2019-03-29T00:02:35.452Z,0.00
2019-03-29T00:03:35.428Z,0.00
2019-03-29T00:04:35.421Z,0.00
2019-03-29T00:05:35.400Z,0.00
2019-03-29T00:06:35.434Z,0.00
2019-03-29T00:07:39.921Z,0.00
2019-03-29T00:08:36.364Z,0.00
2019-03-29T00:09:35.357Z,0.00
2019-03-29T00:10:35.353Z,0.00
2019-03-29T00:11:35.331Z,0.00
2019-03-29T00:12:35.360Z,0.00
2019-03-29T00:13:35.316Z,0.00
2019-03-29T00:14:35.293Z,0.00
2019-03-29T00:15:35.286Z,0.00
2019-03-29T00:16:35.274Z,0.00
2019-03-29T00:17:35.287Z,0.00
2019-03-29T00:18:35.942Z,0.00
2019-03-29T00:19:35.247Z,0.00
2019-03-29T00:20:35.232Z,0.00
2019-03-29T00:21:35.219Z,0.00
2019-03-29T00:22:35.205Z,0.00
2019-03-29T00:23:35.242Z,0.00
2019-03-29T00:24:35.203Z,0.00
2019-03-29T00:25:35.191Z,0.00
2019-03-29T00:26:35.190Z,0.00
2019-03-29T00:27:35.183Z,0.00
2019-03-29T00:28:35.187Z,0.00
2019-03-29T00:29:35.191Z,0.00
2019-03-29T00:30:35.131Z,0.00
2019-03-29T00:31:35.132Z,0.00
2019-03-29T00:32:35.114Z,0.00
2019-03-29T00:33:35.152Z,0.00
2019-03-29T00:34:35.085Z,0.00
2019-03-29T00:35:35.065Z,0.00
2019-03-29T00:36:35.074Z,0.00
2019-03-29T00:37:35.046Z,0.00
2019-03-29T00:38:35.035Z,0.00
2019-03-29T00:39:35.236Z,0.00
2019-03-29T00:40:35.039Z,0.00
2019-03-29T00:41:35.004Z,0.00
2019-03-29T00:42:34.993Z,0.00
2019-03-29T00:43:35.165Z,0.00
2019-03-29T00:44:34.969Z,0.00
2019-03-29T00:45:35.035Z,0.00
2019-03-29T00:46:34.989Z,0.00
2019-03-29T00:47:34.931Z,0.00
2019-03-29T00:48:35.784Z,0.00
2019-03-29T00:49:34.935Z,0.00
2019-03-29T00:50:34.923Z,0.00
2019-03-29T00:51:34.918Z,0.00
2019-03-29T00:52:34.875Z,0.00
2019-03-29T00:53:35.807Z,0.00
2019-03-29T00:54:34.856Z,0.00
2019-03-29T00:55:34.851Z,0.00
2019-03-29T00:56:34.857Z,0.00
2019-03-29T00:57:34.843Z,0.00
2019-03-29T00:58:34.840Z,0.00
2019-03-29T00:59:34.820Z,0.00
2019-03-29T01:00:34.792Z,0.00
2019-03-29T01:01:34.794Z,0.00
2019-03-29T01:02:34.810Z,0.00
2019-03-29T01:03:34.773Z,0.00
2019-03-29T01:04:34.738Z,0.00
2019-03-29T01:05:34.765Z,0.00
2019-03-29T01:06:34.738Z,0.00
2019-03-29T01:07:34.711Z,0.00
2019-03-29T01:08:34.786Z,0.00
2019-03-29T01:09:34.701Z,0.00
2019-03-29T01:10:34.730Z,0.00
2019-03-29T01:11:34.670Z,0.00
2019-03-29T01:12:34.663Z,0.00
2019-03-29T01:13:34.693Z,0.00
2019-03-29T01:14:34.634Z,0.00
2019-03-29T01:15:35.235Z,0.00
2019-03-29T01:16:34.636Z,0.00
2019-03-29T01:17:34.639Z,0.00
2019-03-29T01:18:34.643Z,0.00
2019-03-29T01:19:34.582Z,0.00
2019-03-29T01:20:34.585Z,0.00
2019-03-29T01:21:34.550Z,0.00
2019-03-29T01:22:34.550Z,0.00
2019-03-29T01:23:34.595Z,0.00
2019-03-29T01:24:34.558Z,0.00
2019-03-29T01:25:35.241Z,0.00
2019-03-29T01:26:34.522Z,0.00
2019-03-29T01:27:34.487Z,0.00
2019-03-29T01:28:34.481Z,0.00
2019-03-29T01:29:34.539Z,0.00
2019-03-29T01:30:34.483Z,0.00
2019-03-29T01:31:34.448Z,0.00
2019-03-29T01:32:34.454Z,0.00
2019-03-29T01:33:34.418Z,0.00
2019-03-29T01:34:34.438Z,0.00
2019-03-29T01:35:34.424Z,0.00
2019-03-29T01:36:34.395Z,0.00
2019-03-29T01:37:34.375Z,0.00
2019-03-29T01:38:34.399Z,0.00
2019-03-29T01:39:34.376Z,0.00
2019-03-29T01:40:35.079Z,0.00
2019-03-29T01:41:34.371Z,0.00
2019-03-29T01:42:34.346Z,0.00
2019-03-29T01:43:34.363Z,0.00
2019-03-29T01:44:34.299Z,0.00
2019-03-29T01:45:34.329Z,0.00
2019-03-29T01:46:34.306Z,0.00
2019-03-29T01:47:34.344Z,0.00
2019-03-29T01:48:34.291Z,0.00
2019-03-29T01:49:34.280Z,0.00
2019-03-29T01:50:34.933Z,0.00
2019-03-29T01:51:34.249Z,0.00
2019-03-29T01:52:34.232Z,0.00
2019-03-29T01:53:34.232Z,0.00
2019-03-29T01:54:34.216Z,0.00
2019-03-29T01:55:34.174Z,0.00
2019-03-29T01:56:34.187Z,0.00
2019-03-29T01:57:34.159Z,0.00
2019-03-29T01:58:34.161Z,0.00
2019-03-29T01:59:34.133Z,0.00
2019-03-29T02:00:34.163Z,0.00
2019-03-29T02:01:34.113Z,0.00
2019-03-29T02:02:34.121Z,0.00
2019-03-29T02:03:34.137Z,0.00
2019-03-29T02:04:34.290Z,0.00
2019-03-29T02:05:34.091Z,0.00
2019-03-29T02:06:34.056Z,0.00
2019-03-29T02:07:34.070Z,0.00
2019-03-29T02:08:36.036Z,0.00
2019-03-29T02:09:34.048Z,0.00
2019-03-29T02:10:34.009Z,0.00
2019-03-29T02:11:33.995Z,0.00
2019-03-29T02:12:34.025Z,0.00
2019-03-29T02:13:34.001Z,0.00
2019-03-29T02:14:34.030Z,0.00
2019-03-29T02:15:33.975Z,0.00
2019-03-29T02:16:33.958Z,0.00
2019-03-29T02:17:33.950Z,0.00
2019-03-29T02:18:33.935Z,0.00
2019-03-29T02:19:33.938Z,0.00
2019-03-29T02:20:33.951Z,0.00
2019-03-29T02:21:33.909Z,0.00
2019-03-29T02:22:33.870Z,0.00
2019-03-29T02:23:33.929Z,0.00
2019-03-29T02:24:33.897Z,0.00
2019-03-29T02:25:33.894Z,0.00
2019-03-29T02:26:34.231Z,0.00
2019-03-29T02:27:33.865Z,0.00
2019-03-29T02:28:33.879Z,0.00
2019-03-29T02:29:33.832Z,0.00
2019-03-29T02:30:33.811Z,0.00
2019-03-29T02:31:33.785Z,0.00
2019-03-29T02:32:33.759Z,0.00
2019-03-29T02:33:33.779Z,0.00
2019-03-29T02:34:33.994Z,0.00
2019-03-29T02:35:33.745Z,0.00
2019-03-29T02:36:34.654Z,0.00
2019-03-29T02:37:33.725Z,0.00
2019-03-29T02:38:33.731Z,0.00
2019-03-29T02:39:33.686Z,0.00
2019-03-29T02:40:33.693Z,0.00
2019-03-29T02:41:33.656Z,0.00
2019-03-29T02:42:33.636Z,0.00
2019-03-29T02:43:33.683Z,0.00
2019-03-29T02:44:34.813Z,0.00
2019-03-29T02:45:33.630Z,0.00
2019-03-29T02:46:33.622Z,0.00
2019-03-29T02:47:33.616Z,0.00
2019-03-29T02:48:33.592Z,0.00
2019-03-29T02:49:33.601Z,0.00
2019-03-29T02:50:33.583Z,0.00
2019-03-29T02:51:33.539Z,0.00
2019-03-29T02:52:33.532Z,0.00
2019-03-29T02:53:33.548Z,0.00
2019-03-29T02:54:33.536Z,0.00
2019-03-29T02:55:33.494Z,0.00
2019-03-29T02:56:33.483Z,0.00
2019-03-29T02:57:33.487Z,0.00
2019-03-29T02:58:33.526Z,0.00
2019-03-29T02:59:33.461Z,0.00
2019-03-29T03:00:59.876Z,0.00
2019-03-29T03:01:33.464Z,0.00
2019-03-29T03:02:33.487Z,0.00
2019-03-29T03:03:33.432Z,0.00
2019-03-29T03:04:33.453Z,0.00
2019-03-29T03:05:33.400Z,0.00
2019-03-29T03:06:33.390Z,0.00
2019-03-29T03:07:33.357Z,0.00
2019-03-29T03:08:33.370Z,0.00
2019-03-29T03:09:33.336Z,0.00
2019-03-29T03:10:33.400Z,0.00
2019-03-29T03:11:33.323Z,0.00
2019-03-29T03:12:33.311Z,0.00
2019-03-29T03:13:33.292Z,0.00
2019-03-29T03:14:33.287Z,0.00
2019-03-29T03:15:33.271Z,0.00
2019-03-29T03:16:33.294Z,0.00
2019-03-29T03:17:33.274Z,0.00
2019-03-29T03:18:33.261Z,0.00
2019-03-29T03:19:33.236Z,0.00
2019-03-29T03:20:33.224Z,0.00
2019-03-29T03:21:33.209Z,0.00
2019-03-29T03:22:33.220Z,0.00
2019-03-29T03:23:33.211Z,0.00
2019-03-29T03:24:33.220Z,0.00
2019-03-29T03:25:33.194Z,0.00
2019-03-29T03:26:33.169Z,0.00
2019-03-29T03:27:33.182Z,0.00
2019-03-29T03:28:33.131Z,0.00
2019-03-29T03:29:33.125Z,0.00
2019-03-29T03:30:33.117Z,0.00
2019-03-29T03:31:33.122Z,0.00
2019-03-29T03:32:33.130Z,0.00
2019-03-29T03:33:33.138Z,0.00
2019-03-29T03:34:33.084Z,0.00
2019-03-29T03:35:33.090Z,0.00
2019-03-29T03:36:33.073Z,0.00
2019-03-29T03:37:33.074Z,0.00
2019-03-29T03:38:33.034Z,0.00
2019-03-29T03:39:33.068Z,0.00
2019-03-29T03:40:33.020Z,0.00
2019-03-29T03:41:32.992Z,0.00
2019-03-29T03:42:33.007Z,0.00
2019-03-29T03:43:33.006Z,0.00
2019-03-29T03:44:32.964Z,0.00
2019-03-29T03:45:32.957Z,0.00
2019-03-29T03:46:32.957Z,0.00
2019-03-29T03:47:32.987Z,0.00
2019-03-29T03:48:32.957Z,0.00
2019-03-29T03:49:32.905Z,0.00
2019-03-29T03:50:32.894Z,0.00
2019-03-29T03:51:32.883Z,0.00
2019-03-29T03:52:32.912Z,0.00
2019-03-29T03:53:32.865Z,0.00
2019-03-29T03:54:32.857Z,0.00
2019-03-29T03:55:32.874Z,0.00
2019-03-29T03:56:32.830Z,0.00
2019-03-29T03:57:32.845Z,0.00
2019-03-29T03:58:32.810Z,0.00
2019-03-29T03:59:32.804Z,0.00
2019-03-29T04:00:32.812Z,0.00
2019-03-29T04:01:32.810Z,0.00
2019-03-29T04:02:32.775Z,0.00
2019-03-29T04:03:32.755Z,0.00
2019-03-29T04:04:32.782Z,0.00
2019-03-29T04:05:32.731Z,0.00
2019-03-29T04:06:32.731Z,0.00
2019-03-29T04:07:32.711Z,0.00
2019-03-29T04:08:32.759Z,0.00
2019-03-29T04:09:48.386Z,0.00
2019-03-29T04:10:33.674Z,0.00
2019-03-29T04:11:32.679Z,0.00
2019-03-29T04:12:32.661Z,0.00
2019-03-29T04:13:32.671Z,0.00
2019-03-29T04:14:32.637Z,0.00
2019-03-29T04:15:32.637Z,0.00
2019-03-29T04:16:32.619Z,0.00
2019-03-29T04:17:32.622Z,0.00
2019-03-29T04:18:32.612Z,0.00
2019-03-29T04:19:32.587Z,0.00
2019-03-29T04:20:32.629Z,0.00
2019-03-29T04:21:32.573Z,0.00
2019-03-29T04:22:32.584Z,0.00
2019-03-29T04:23:32.567Z,0.00
2019-03-29T04:24:32.540Z,0.00
2019-03-29T04:25:32.520Z,0.00
2019-03-29T04:26:32.506Z,0.00
2019-03-29T04:27:32.507Z,0.00
2019-03-29T04:28:32.513Z,0.00
2019-03-29T04:29:32.474Z,0.00
2019-03-29T04:30:32.473Z,0.00
2019-03-29T04:31:32.448Z,0.00
2019-03-29T04:32:32.469Z,0.00
2019-03-29T04:33:32.483Z,0.00
2019-03-29T04:34:32.418Z,0.00
2019-03-29T04:35:32.439Z,0.00
2019-03-29T04:36:32.397Z,0.00
2019-03-29T04:37:32.421Z,0.00
2019-03-29T04:38:32.426Z,0.00
2019-03-29T04:39:32.376Z,0.00
2019-03-29T04:40:32.353Z,0.00
2019-03-29T04:41:32.345Z,0.00
2019-03-29T04:42:32.331Z,0.00
2019-03-29T04:43:32.395Z,4.00
2019-03-29T04:44:32.323Z,4.00
2019-03-29T04:45:32.301Z,0.00
2019-03-29T04:46:32.338Z,4.00
2019-03-29T04:47:32.336Z,4.00
2019-03-29T04:48:32.319Z,0.00
2019-03-29T04:49:32.259Z,4.00
2019-03-29T04:50:32.250Z,4.00
2019-03-29T04:51:32.271Z,8.00
2019-03-29T04:52:32.271Z,8.00
2019-03-29T04:53:32.215Z,8.00
2019-03-29T04:54:32.219Z,8.00
2019-03-29T04:55:32.198Z,8.00
2019-03-29T04:56:32.179Z,8.00
2019-03-29T04:57:32.225Z,12.00
2019-03-29T04:58:32.160Z,12.00
2019-03-29T04:59:32.168Z,20.00
2019-03-29T05:00:32.142Z,20.00
2019-03-29T05:01:32.129Z,20.00
2019-03-29T05:02:32.125Z,24.00
2019-03-29T05:03:32.340Z,28.00
2019-03-29T05:04:32.099Z,32.00
2019-03-29T05:05:32.090Z,36.00
2019-03-29T05:06:32.151Z,44.00
2019-03-29T05:07:32.147Z,48.00
2019-03-29T05:08:32.048Z,52.00
2019-03-29T05:09:32.060Z,56.00
2019-03-29T05:10:32.037Z,64.00
2019-03-29T05:11:32.023Z,68.00
2019-03-29T05:12:32.040Z,76.00
2019-03-29T05:13:32.010Z,84.00
2019-03-29T05:14:31.994Z,92.00
2019-03-29T05:15:31.976Z,100.00
2019-03-29T05:16:31.978Z,108.00
2019-03-29T05:17:31.976Z,116.00
2019-03-29T05:18:31.962Z,124.00
2019-03-29T05:19:31.931Z,140.00
2019-03-29T05:20:31.918Z,148.00
2019-03-29T05:21:31.904Z,160.00
2019-03-29T05:22:31.922Z,168.00
2019-03-29T05:23:31.892Z,180.00
2019-03-29T05:24:31.883Z,192.00
2019-03-29T05:25:31.863Z,204.00
2019-03-29T05:26:31.878Z,216.00
2019-03-29T05:27:31.882Z,228.00
2019-03-29T05:28:31.832Z,240.00
2019-03-29T05:29:31.845Z,256.00
2019-03-29T05:30:31.811Z,268.00
2019-03-29T05:31:31.799Z,280.00
2019-03-29T05:32:31.826Z,296.00
2019-03-29T05:33:31.770Z,312.00
2019-03-29T05:34:31.766Z,324.00
2019-03-29T05:35:31.778Z,340.00
2019-03-29T05:36:31.748Z,352.00
2019-03-29T05:37:31.758Z,368.00
2019-03-29T05:38:31.720Z,384.00
2019-03-29T05:39:31.715Z,404.00
2019-03-29T05:40:35.063Z,420.00
2019-03-29T05:41:31.694Z,436.00
2019-03-29T05:42:31.715Z,452.00
2019-03-29T05:43:31.666Z,472.00
2019-03-29T05:44:31.676Z,488.00
2019-03-29T05:45:31.649Z,508.00
2019-03-29T05:46:31.634Z,524.00
2019-03-29T05:47:31.659Z,548.00
2019-03-29T05:48:31.608Z,580.00
2019-03-29T05:49:31.647Z,604.00
2019-03-29T05:50:31.597Z,632.00
2019-03-29T05:51:31.590Z,652.00
2019-03-29T05:52:31.591Z,672.00
2019-03-29T05:53:31.566Z,688.00
2019-03-29T05:54:31.554Z,704.00
2019-03-29T05:55:32.802Z,720.00
2019-03-29T05:56:31.552Z,736.00
2019-03-29T05:57:31.553Z,748.00
2019-03-29T05:58:31.505Z,764.00
2019-03-29T05:59:31.488Z,772.00
2019-03-29T06:00:31.487Z,788.00
2019-03-29T06:01:31.477Z,808.00
2019-03-29T06:02:31.489Z,816.00
2019-03-29T06:03:31.489Z,836.00
2019-03-29T06:04:31.528Z,856.00
2019-03-29T06:05:31.509Z,876.00
2019-03-29T06:06:31.486Z,892.00
2019-03-29T06:07:31.870Z,908.00
2019-03-29T06:08:31.393Z,920.00
2019-03-29T06:09:33.586Z,940.00
2019-03-29T06:10:31.379Z,956.00
2019-03-29T06:11:31.397Z,972.00
2019-03-29T06:12:31.379Z,984.00
2019-03-29T06:13:31.339Z,992.00
2019-03-29T06:14:31.328Z,1012.00
2019-03-29T06:15:31.323Z,1024.00
2019-03-29T06:16:38.815Z,1036.00
2019-03-29T06:17:32.318Z,1048.00
2019-03-29T06:18:31.321Z,1060.00
2019-03-29T06:19:31.280Z,1064.00
2019-03-29T06:20:31.263Z,1072.00
2019-03-29T06:21:31.258Z,1076.00
2019-03-29T06:22:31.264Z,1084.00
2019-03-29T06:23:31.235Z,1096.00
2019-03-29T06:24:31.250Z,1104.00
2019-03-29T06:25:31.207Z,1116.00
2019-03-29T06:26:31.202Z,1124.00
2019-03-29T06:27:31.208Z,1132.00
2019-03-29T06:28:31.185Z,1140.00
2019-03-29T06:29:31.169Z,1144.00
2019-03-29T06:30:31.384Z,1156.00
2019-03-29T06:31:31.163Z,1168.00
2019-03-29T06:32:31.133Z,1180.00
2019-03-29T06:33:31.147Z,1188.00
2019-03-29T06:34:31.123Z,1196.00
2019-03-29T06:35:31.100Z,1204.00
2019-03-29T06:36:31.083Z,1212.00
2019-03-29T06:37:31.104Z,1220.00
2019-03-29T06:38:31.089Z,1228.00
2019-03-29T06:39:31.051Z,1240.00
2019-03-29T06:40:31.044Z,1220.00
2019-03-29T06:41:31.060Z,1244.00
2019-03-29T06:42:31.026Z,1244.00
2019-03-29T06:43:31.031Z,1248.00
2019-03-29T06:44:31.057Z,1252.00
2019-03-29T06:45:31.026Z,1256.00
2019-03-29T06:46:30.982Z,1264.00
2019-03-29T06:47:30.967Z,1268.00
2019-03-29T06:48:30.950Z,1272.00
2019-03-29T06:49:30.941Z,1272.00
2019-03-29T06:50:30.992Z,1276.00
2019-03-29T06:51:30.923Z,1284.00
2019-03-29T06:52:30.968Z,1300.00
2019-03-29T06:53:30.895Z,1312.00
2019-03-29T06:54:30.888Z,1324.00
2019-03-29T06:55:30.896Z,1340.00
2019-03-29T06:56:31.087Z,1364.00
2019-03-29T06:57:30.880Z,1380.00
2019-03-29T06:58:30.840Z,1396.00
2019-03-29T06:59:30.829Z,1412.00
2019-03-29T07:00:30.813Z,1428.00
2019-03-29T07:01:30.804Z,1436.00
2019-03-29T07:02:30.827Z,1452.00
2019-03-29T07:03:30.816Z,1460.00
2019-03-29T07:04:30.787Z,1468.00
2019-03-29T07:05:30.761Z,1476.00
2019-03-29T07:06:30.799Z,1488.00
2019-03-29T07:07:30.738Z,1500.00
2019-03-29T07:08:30.752Z,1508.00
2019-03-29T07:09:30.753Z,1516.00
2019-03-29T07:10:30.704Z,1524.00
2019-03-29T07:11:30.697Z,1528.00
2019-03-29T07:12:30.682Z,1532.00
2019-03-29T07:13:30.684Z,1532.00
2019-03-29T07:14:30.687Z,1540.00
2019-03-29T07:15:30.682Z,1544.00
2019-03-29T07:16:30.638Z,1548.00
2019-03-29T07:17:30.627Z,1556.00
2019-03-29T07:18:30.615Z,1556.00
2019-03-29T07:19:30.627Z,1560.00
2019-03-29T07:20:30.593Z,1564.00
2019-03-29T07:21:30.628Z,1564.00
2019-03-29T07:22:30.569Z,1560.00
2019-03-29T07:23:30.563Z,1564.00
2019-03-29T07:24:30.575Z,1568.00
2019-03-29T07:25:30.543Z,1572.00
2019-03-29T07:26:30.530Z,1576.00
2019-03-29T07:27:43.924Z,1576.00
2019-03-29T07:28:31.506Z,1576.00
2019-03-29T07:29:30.517Z,1580.00
2019-03-29T07:30:30.488Z,1576.00
2019-03-29T07:31:30.472Z,1576.00
2019-03-29T07:32:30.459Z,1580.00
2019-03-29T07:33:30.476Z,1576.00
2019-03-29T07:34:30.469Z,1584.00
2019-03-29T07:35:30.431Z,1584.00
2019-03-29T07:36:30.418Z,1580.00
2019-03-29T07:37:30.431Z,1584.00
2019-03-29T07:38:30.398Z,1580.00
2019-03-29T07:39:30.420Z,1580.00
2019-03-29T07:40:30.391Z,1580.00
2019-03-29T07:41:32.074Z,1580.00
2019-03-29T07:42:30.406Z,1588.00
2019-03-29T07:43:30.344Z,1596.00
2019-03-29T07:44:30.379Z,1596.00
2019-03-29T07:45:30.327Z,1596.00
2019-03-29T07:46:30.309Z,1600.00
2019-03-29T07:47:30.309Z,1600.00
2019-03-29T07:48:30.312Z,1596.00
2019-03-29T07:49:30.278Z,1596.00
2019-03-29T07:50:30.285Z,1600.00
2019-03-29T07:51:30.283Z,1600.00
2019-03-29T07:52:30.239Z,1600.00
2019-03-29T07:53:30.285Z,1604.00
2019-03-29T07:54:30.251Z,1600.00
2019-03-29T07:55:30.208Z,1600.00
2019-03-29T07:56:30.196Z,1596.00
2019-03-29T07:57:30.189Z,1600.00
2019-03-29T07:58:30.185Z,1596.00
2019-03-29T07:59:30.328Z,1596.00
2019-03-29T08:00:30.200Z,1596.00
2019-03-29T08:01:32.530Z,1592.00
2019-03-29T08:02:30.135Z,1584.00
2019-03-29T08:03:30.113Z,1584.00
2019-03-29T08:04:30.124Z,1580.00
2019-03-29T08:05:30.104Z,1576.00
2019-03-29T08:06:30.084Z,1572.00
2019-03-29T08:07:31.462Z,1572.00
2019-03-29T08:08:33.314Z,1568.00
2019-03-29T08:09:30.089Z,1568.00
2019-03-29T08:10:31.435Z,1568.00
2019-03-29T08:11:30.064Z,1564.00
2019-03-29T08:12:30.041Z,1560.00
2019-03-29T08:13:30.034Z,1556.00
2019-03-29T08:14:30.021Z,1548.00
2019-03-29T08:15:29.988Z,1548.00
2019-03-29T08:16:29.986Z,1540.00
2019-03-29T08:17:29.976Z,1536.00
2019-03-29T08:18:29.975Z,1536.00
2019-03-29T08:19:30.050Z,1532.00
2019-03-29T08:20:41.667Z,1532.00
2019-03-29T08:21:30.920Z,1528.00
2019-03-29T08:22:29.907Z,1524.00
2019-03-29T08:23:29.902Z,1520.00
2019-03-29T08:24:29.950Z,1516.00
2019-03-29T08:25:29.873Z,1512.00
2019-03-29T08:26:29.876Z,1508.00
2019-03-29T08:27:29.851Z,1504.00
2019-03-29T08:28:29.847Z,1504.00
2019-03-29T08:29:31.410Z,1500.00
2019-03-29T08:30:29.857Z,1496.00
2019-03-29T08:31:29.826Z,1492.00
2019-03-29T08:32:29.794Z,1484.00
2019-03-29T08:33:29.794Z,1484.00
2019-03-29T08:34:29.779Z,1484.00
2019-03-29T08:35:29.784Z,1476.00
2019-03-29T08:36:29.751Z,1476.00
2019-03-29T08:37:29.745Z,1472.00
2019-03-29T08:38:29.732Z,1468.00
2019-03-29T08:39:29.720Z,1464.00
2019-03-29T08:40:29.726Z,1460.00
2019-03-29T08:41:29.725Z,1456.00
2019-03-29T08:42:29.692Z,1452.00
2019-03-29T08:43:29.671Z,1444.00
2019-03-29T08:44:29.686Z,1444.00
2019-03-29T08:45:29.686Z,1436.00
2019-03-29T08:46:29.639Z,1436.00
2019-03-29T08:47:29.682Z,1432.00
2019-03-29T08:48:29.617Z,1428.00
2019-03-29T08:49:29.635Z,1424.00
2019-03-29T08:50:29.596Z,1420.00
2019-03-29T08:51:29.584Z,1412.00
2019-03-29T08:52:29.579Z,1408.00
2019-03-29T08:53:29.562Z,1404.00
2019-03-29T08:54:29.580Z,1400.00
2019-03-29T08:55:29.568Z,1396.00
2019-03-29T08:56:29.551Z,1396.00
2019-03-29T08:57:29.519Z,1392.00
2019-03-29T08:58:29.504Z,1392.00
2019-03-29T08:59:29.500Z,1388.00
2019-03-29T09:00:29.522Z,1384.00
2019-03-29T09:01:29.508Z,1376.00
2019-03-29T09:02:29.456Z,1376.00
2019-03-29T09:03:29.489Z,1368.00
2019-03-29T09:04:29.438Z,1368.00
2019-03-29T09:05:29.551Z,1364.00
2019-03-29T09:06:30.365Z,1364.00
2019-03-29T09:07:29.402Z,1356.00
2019-03-29T09:08:29.394Z,1356.00
2019-03-29T09:09:29.389Z,1360.00
2019-03-29T09:10:29.482Z,1356.00
2019-03-29T09:11:29.376Z,1348.00
2019-03-29T09:12:29.369Z,1348.00
2019-03-29T09:13:29.339Z,1344.00
2019-03-29T09:14:31.371Z,1340.00
2019-03-29T09:15:29.340Z,1336.00
2019-03-29T09:16:29.379Z,1332.00
2019-03-29T09:17:29.307Z,1332.00
2019-03-29T09:18:29.296Z,1332.00
2019-03-29T09:19:29.267Z,1332.00
2019-03-29T09:20:29.292Z,1328.00
2019-03-29T09:21:29.244Z,1328.00
2019-03-29T09:22:29.235Z,1324.00
2019-03-29T09:23:30.317Z,1320.00
2019-03-29T09:24:29.211Z,1316.00
2019-03-29T09:25:29.219Z,1308.00
2019-03-29T09:26:29.190Z,1304.00
2019-03-29T09:27:31.858Z,1292.00
2019-03-29T09:28:32.601Z,1288.00
2019-03-29T09:29:29.157Z,1280.00
2019-03-29T09:30:29.177Z,1272.00
2019-03-29T09:31:29.133Z,1268.00
2019-03-29T09:32:29.124Z,1260.00
2019-03-29T09:33:29.116Z,1256.00
2019-03-29T09:34:29.123Z,1252.00
2019-03-29T09:35:29.127Z,1248.00
2019-03-29T09:36:29.086Z,1244.00
2019-03-29T09:37:29.091Z,1236.00
2019-03-29T09:38:29.064Z,1232.00
2019-03-29T09:39:29.048Z,1224.00
2019-03-29T09:40:29.066Z,1216.00
2019-03-29T09:41:29.046Z,1208.00
2019-03-29T09:42:30.195Z,1204.00
2019-03-29T09:43:29.010Z,1204.00
2019-03-29T09:44:28.991Z,1196.00
2019-03-29T09:45:28.987Z,1196.00
2019-03-29T09:46:28.997Z,1192.00
2019-03-29T09:47:35.995Z,1184.00
2019-03-29T09:48:29.953Z,1184.00
2019-03-29T09:49:28.937Z,1180.00
2019-03-29T09:50:28.925Z,1176.00
2019-03-29T09:51:28.950Z,1180.00
2019-03-29T09:52:28.917Z,1176.00
2019-03-29T09:53:28.889Z,1176.00
2019-03-29T09:54:28.887Z,1176.00
2019-03-29T09:55:28.869Z,1176.00
2019-03-29T09:56:38.639Z,1180.00
2019-03-29T09:57:37.275Z,1196.00
2019-03-29T09:58:29.850Z,1180.00
2019-03-29T09:59:28.834Z,1184.00
2019-03-29T10:00:28.819Z,1188.00
2019-03-29T10:01:28.876Z,1188.00
2019-03-29T10:02:28.794Z,1188.00
2019-03-29T10:03:28.786Z,1188.00
2019-03-29T10:04:28.786Z,1192.00
2019-03-29T10:05:31.363Z,1184.00
2019-03-29T10:06:28.774Z,1188.00
2019-03-29T10:07:28.737Z,1188.00
2019-03-29T10:08:28.740Z,1192.00
2019-03-29T10:09:28.717Z,1196.00
2019-03-29T10:10:28.786Z,1196.00
2019-03-29T10:11:28.720Z,1196.00
2019-03-29T10:12:42.322Z,1196.00
2019-03-29T10:13:29.684Z,1200.00
2019-03-29T10:14:28.664Z,1200.00
2019-03-29T10:15:28.653Z,1204.00
2019-03-29T10:16:28.681Z,1204.00
2019-03-29T10:17:28.637Z,1204.00
2019-03-29T10:18:28.621Z,1208.00
2019-03-29T10:19:28.612Z,1204.00
2019-03-29T10:20:28.599Z,1208.00
2019-03-29T10:21:28.619Z,1204.00
2019-03-29T10:22:28.583Z,1208.00
2019-03-29T10:23:28.588Z,1208.00
2019-03-29T10:24:28.555Z,1208.00
2019-03-29T10:25:28.549Z,1208.00
2019-03-29T10:26:28.536Z,1208.00
2019-03-29T10:27:28.530Z,1208.00
2019-03-29T10:28:28.539Z,1204.00
2019-03-29T10:29:28.502Z,1208.00
2019-03-29T10:30:28.489Z,1208.00
2019-03-29T10:31:32.441Z,1208.00
2019-03-29T10:32:28.471Z,1216.00
2019-03-29T10:33:28.513Z,1220.00
2019-03-29T10:34:28.493Z,1228.00
2019-03-29T10:35:28.431Z,1228.00
2019-03-29T10:36:28.447Z,1228.00
2019-03-29T10:37:28.411Z,1236.00
2019-03-29T10:38:28.401Z,1244.00
2019-03-29T10:39:28.402Z,1236.00
2019-03-29T10:40:28.383Z,1228.00
2019-03-29T10:41:28.403Z,1228.00
2019-03-29T10:42:28.352Z,1228.00
2019-03-29T10:43:28.356Z,1232.00
2019-03-29T10:44:28.330Z,1228.00
2019-03-29T10:45:28.321Z,1224.00
2019-03-29T10:46:28.338Z,1228.00
2019-03-29T10:47:42.384Z,1224.00
2019-03-29T10:48:29.294Z,1228.00
2019-03-29T10:49:28.281Z,1228.00
2019-03-29T10:50:28.265Z,1228.00
2019-03-29T10:51:28.269Z,1220.00
2019-03-29T10:52:28.244Z,1224.00
2019-03-29T10:53:28.833Z,1220.00
2019-03-29T10:54:28.218Z,1224.00
2019-03-29T10:55:28.212Z,1228.00
2019-03-29T10:56:34.270Z,1228.00
2019-03-29T10:57:29.182Z,1232.00
2019-03-29T10:58:28.167Z,1232.00
2019-03-29T10:59:28.256Z,1240.00
2019-03-29T11:00:28.167Z,1252.00
2019-03-29T11:01:28.199Z,1260.00
2019-03-29T11:02:28.130Z,1248.00
2019-03-29T11:03:28.829Z,1236.00
2019-03-29T11:04:31.575Z,1236.00
2019-03-29T11:05:28.088Z,1236.00
2019-03-29T11:06:28.113Z,1236.00
2019-03-29T11:07:28.080Z,1232.00
2019-03-29T11:08:28.083Z,1236.00
2019-03-29T11:09:28.040Z,1236.00
2019-03-29T11:10:28.254Z,1228.00
2019-03-29T11:11:28.051Z,1228.00
2019-03-29T11:12:28.008Z,1224.00
2019-03-29T11:13:28.001Z,1224.00
2019-03-29T11:14:27.983Z,1220.00
2019-03-29T11:15:27.998Z,1224.00
2019-03-29T11:16:27.989Z,1228.00
2019-03-29T11:17:27.954Z,1232.00
2019-03-29T11:18:27.951Z,1236.00
2019-03-29T11:19:27.933Z,1240.00
2019-03-29T11:20:27.940Z,1240.00
2019-03-29T11:21:27.971Z,1236.00
2019-03-29T11:22:27.898Z,1240.00
2019-03-29T11:23:27.881Z,1240.00
2019-03-29T11:24:27.890Z,1232.00
2019-03-29T11:25:27.860Z,1236.00
2019-03-29T11:26:27.878Z,1236.00
2019-03-29T11:27:27.848Z,1244.00
2019-03-29T11:28:27.835Z,1240.00
2019-03-29T11:29:27.815Z,1240.00
2019-03-29T11:30:41.173Z,1236.00
2019-03-29T11:31:28.819Z,1244.00
2019-03-29T11:32:27.808Z,1248.00
2019-03-29T11:33:27.809Z,1252.00
2019-03-29T11:34:27.759Z,1248.00
2019-03-29T11:35:27.756Z,1244.00
2019-03-29T11:36:27.758Z,1244.00
2019-03-29T11:37:27.755Z,1244.00
2019-03-29T11:38:27.718Z,1244.00
2019-03-29T11:39:27.755Z,1240.00
2019-03-29T11:40:27.714Z,1240.00
2019-03-29T11:41:27.680Z,1236.00
2019-03-29T11:42:27.698Z,1240.00
2019-03-29T11:43:27.672Z,1240.00
2019-03-29T11:44:30.182Z,1236.00
2019-03-29T11:45:27.638Z,1236.00
2019-03-29T11:46:27.629Z,1236.00
2019-03-29T11:47:27.647Z,1236.00
2019-03-29T11:48:29.544Z,1236.00
2019-03-29T11:49:27.596Z,1240.00
2019-03-29T11:50:29.278Z,1236.00
2019-03-29T11:51:27.582Z,1236.00
2019-03-29T11:52:27.603Z,1240.00
2019-03-29T11:53:27.550Z,1236.00
2019-03-29T11:54:27.539Z,1236.00
2019-03-29T11:55:27.526Z,1240.00
2019-03-29T11:56:27.520Z,1240.00
2019-03-29T11:57:27.511Z,1240.00
2019-03-29T11:58:27.541Z,1240.00
2019-03-29T11:59:27.481Z,1240.00
2019-03-29T12:00:27.477Z,1240.00
2019-03-29T12:01:27.462Z,1240.00
2019-03-29T12:02:31.622Z,1240.00
2019-03-29T12:03:27.445Z,1240.00
2019-03-29T12:04:27.438Z,1240.00
2019-03-29T12:05:27.416Z,1240.00
2019-03-29T12:06:27.447Z,1244.00
2019-03-29T12:07:27.411Z,1244.00
2019-03-29T12:08:27.386Z,1248.00
2019-03-29T12:09:27.380Z,1244.00
2019-03-29T12:10:27.368Z,1244.00
2019-03-29T12:11:27.348Z,1244.00
2019-03-29T12:12:27.705Z,1244.00
2019-03-29T12:13:40.357Z,1244.00
2019-03-29T12:14:28.333Z,1244.00
2019-03-29T12:15:27.306Z,1244.00
2019-03-29T12:16:27.314Z,1244.00
2019-03-29T12:17:27.331Z,1244.00
2019-03-29T12:18:27.292Z,1244.00
2019-03-29T12:19:27.268Z,1248.00
2019-03-29T12:20:27.251Z,1244.00
2019-03-29T12:21:27.250Z,1244.00
2019-03-29T12:22:27.272Z,1240.00
2019-03-29T12:23:27.244Z,1240.00
2019-03-29T12:24:27.206Z,1240.00
2019-03-29T12:25:27.206Z,1244.00
2019-03-29T12:26:27.182Z,1240.00
2019-03-29T12:27:27.200Z,1244.00
2019-03-29T12:28:27.164Z,1236.00
2019-03-29T12:29:27.161Z,1232.00
2019-03-29T12:30:31.786Z,1240.00
2019-03-29T12:31:28.162Z,1240.00
2019-03-29T12:32:27.121Z,1236.00
2019-03-29T12:33:27.116Z,1236.00
2019-03-29T12:34:27.108Z,1232.00
2019-03-29T12:35:27.116Z,1236.00